sensor_id;sensor_type;location;lat;lon;timestamp;P1;durP1;ratioP1;P2;durP2;ratioP2
18929;SDS011;43305;52.186;5.598;2024-03-17T00:00:37;14.00;;;5.07;;
18929;SDS011;43305;52.186;5.598;2024-03-17T00:03:05;13.30;;;5.10;;
18929;SDS011;43305;52.186;5.598;2024-03-17T00:05:33;11.07;;;4.93;;
18929;SDS011;43305;52.186;5.598;2024-03-17T00:08:00;13.25;;;6.00;;
18929;SDS011;43305;52.186;5.598;2024-03-17T00:10:29;17.00;;;5.07;;
18929;SDS011;43305;52.186;5.598;2024-03-17T00:12:55;14.68;;;4.78;;
18929;SDS011;43305;52.186;5.598;2024-03-17T00:15:22;15.20;;;4.53;;
18929;SDS011;43305;52.186;5.598;2024-03-17T00:17:48;13.10;;;4.60;;
18929;SDS011;43305;52.186;5.598;2024-03-17T00:20:18;15.38;;;4.40;;
18929;SDS011;43305;52.186;5.598;2024-03-17T00:22:45;12.43;;;3.90;;
18929;SDS011;43305;52.186;5.598;2024-03-17T00:25:14;15.85;;;3.60;;
18929;SDS011;43305;52.186;5.598;2024-03-17T00:27:40;11.55;;;3.92;;
18929;SDS011;43305;52.186;5.598;2024-03-17T00:30:09;12.50;;;3.97;;
18929;SDS011;43305;52.186;5.598;2024-03-17T00:32:37;11.65;;;3.53;;
18929;SDS011;43305;52.186;5.598;2024-03-17T00:35:04;9.00;;;3.67;;
18929;SDS011;43305;52.186;5.598;2024-03-17T00:37:31;14.25;;;3.58;;
18929;SDS011;43305;52.186;5.598;2024-03-17T00:39:59;10.65;;;3.58;;
18929;SDS011;43305;52.186;5.598;2024-03-17T00:42:26;12.07;;;3.60;;
18929;SDS011;43305;52.186;5.598;2024-03-17T00:44:53;9.90;;;3.33;;
18929;SDS011;43305;52.186;5.598;2024-03-17T00:47:22;11.00;;;3.35;;
18929;SDS011;43305;52.186;5.598;2024-03-17T00:49:49;14.63;;;3.72;;
18929;SDS011;43305;52.186;5.598;2024-03-17T00:52:18;19.13;;;3.60;;
18929;SDS011;43305;52.186;5.598;2024-03-17T00:54:46;7.25;;;3.58;;
18929;SDS011;43305;52.186;5.598;2024-03-17T00:57:12;8.60;;;3.00;;
18929;SDS011;43305;52.186;5.598;2024-03-17T00:59:40;11.43;;;3.22;;
18929;SDS011;43305;52.186;5.598;2024-03-17T01:02:08;11.10;;;3.55;;
18929;SDS011;43305;52.186;5.598;2024-03-17T01:04:35;11.18;;;3.47;;
18929;SDS011;43305;52.186;5.598;2024-03-17T01:07:00;10.23;;;3.50;;
18929;SDS011;43305;52.186;5.598;2024-03-17T01:09:27;8.50;;;3.33;;
18929;SDS011;43305;52.186;5.598;2024-03-17T01:11:53;11.35;;;3.40;;
18929;SDS011;43305;52.186;5.598;2024-03-17T01:14:20;11.32;;;3.70;;
18929;SDS011;43305;52.186;5.598;2024-03-17T01:16:48;15.73;;;3.58;;
18929;SDS011;43305;52.186;5.598;2024-03-17T01:19:17;10.30;;;3.42;;
18929;SDS011;43305;52.186;5.598;2024-03-17T01:21:43;9.60;;;3.60;;
18929;SDS011;43305;52.186;5.598;2024-03-17T01:24:10;9.07;;;3.30;;
18929;SDS011;43305;52.186;5.598;2024-03-17T01:26:36;12.15;;;2.78;;
18929;SDS011;43305;52.186;5.598;2024-03-17T01:29:02;9.07;;;3.58;;
18929;SDS011;43305;52.186;5.598;2024-03-17T01:31:28;10.02;;;3.10;;
18929;SDS011;43305;52.186;5.598;2024-03-17T01:33:56;8.85;;;2.90;;
18929;SDS011;43305;52.186;5.598;2024-03-17T01:36:22;9.55;;;3.00;;
18929;SDS011;43305;52.186;5.598;2024-03-17T01:38:49;10.32;;;3.30;;
18929;SDS011;43305;52.186;5.598;2024-03-17T01:41:18;9.10;;;2.95;;
18929;SDS011;43305;52.186;5.598;2024-03-17T01:43:45;6.75;;;2.83;;
18929;SDS011;43305;52.186;5.598;2024-03-17T01:46:11;7.55;;;3.03;;
18929;SDS011;43305;52.186;5.598;2024-03-17T01:48:40;7.47;;;2.83;;
18929;SDS011;43305;52.186;5.598;2024-03-17T01:51:08;8.48;;;2.92;;
18929;SDS011;43305;52.186;5.598;2024-03-17T01:53:36;8.50;;;2.83;;
18929;SDS011;43305;52.186;5.598;2024-03-17T01:56:04;9.57;;;3.55;;
18929;SDS011;43305;52.186;5.598;2024-03-17T01:58:32;13.55;;;3.45;;
18929;SDS011;43305;52.186;5.598;2024-03-17T02:00:58;10.32;;;3.65;;
18929;SDS011;43305;52.186;5.598;2024-03-17T02:03:25;11.25;;;3.50;;
18929;SDS011;43305;52.186;5.598;2024-03-17T02:05:51;12.52;;;3.60;;
18929;SDS011;43305;52.186;5.598;2024-03-17T02:08:19;11.30;;;3.58;;
18929;SDS011;43305;52.186;5.598;2024-03-17T02:10:52;11.00;;;3.88;;
18929;SDS011;43305;52.186;5.598;2024-03-17T02:13:19;10.20;;;3.60;;
18929;SDS011;43305;52.186;5.598;2024-03-17T02:15:47;10.55;;;3.95;;
18929;SDS011;43305;52.186;5.598;2024-03-17T02:18:18;10.00;;;3.28;;
18929;SDS011;43305;52.186;5.598;2024-03-17T02:20:44;15.45;;;3.58;;
18929;SDS011;43305;52.186;5.598;2024-03-17T02:23:25;13.43;;;3.65;;
18929;SDS011;43305;52.186;5.598;2024-03-17T02:25:51;13.63;;;3.50;;
18929;SDS011;43305;52.186;5.598;2024-03-17T02:28:18;11.20;;;4.18;;
18929;SDS011;43305;52.186;5.598;2024-03-17T02:30:44;9.75;;;3.70;;
18929;SDS011;43305;52.186;5.598;2024-03-17T02:33:11;12.35;;;3.70;;
18929;SDS011;43305;52.186;5.598;2024-03-17T02:35:36;9.90;;;3.38;;
18929;SDS011;43305;52.186;5.598;2024-03-17T02:38:03;13.43;;;4.20;;
18929;SDS011;43305;52.186;5.598;2024-03-17T02:40:31;11.32;;;3.60;;
18929;SDS011;43305;52.186;5.598;2024-03-17T02:42:58;8.95;;;3.88;;
18929;SDS011;43305;52.186;5.598;2024-03-17T02:45:25;12.82;;;3.78;;
18929;SDS011;43305;52.186;5.598;2024-03-17T02:47:52;14.73;;;4.45;;
18929;SDS011;43305;52.186;5.598;2024-03-17T02:50:23;11.52;;;3.70;;
18929;SDS011;43305;52.186;5.598;2024-03-17T02:52:49;9.57;;;3.88;;
18929;SDS011;43305;52.186;5.598;2024-03-17T02:55:19;10.80;;;4.55;;
18929;SDS011;43305;52.186;5.598;2024-03-17T02:57:51;11.57;;;3.92;;
18929;SDS011;43305;52.186;5.598;2024-03-17T03:00:18;14.77;;;4.38;;
18929;SDS011;43305;52.186;5.598;2024-03-17T03:02:47;9.85;;;4.38;;
18929;SDS011;43305;52.186;5.598;2024-03-17T03:05:18;13.98;;;4.57;;
18929;SDS011;43305;52.186;5.598;2024-03-17T03:07:47;14.43;;;4.57;;
18929;SDS011;43305;52.186;5.598;2024-03-17T03:10:14;12.93;;;4.68;;
18929;SDS011;43305;52.186;5.598;2024-03-17T03:12:40;14.48;;;4.90;;
18929;SDS011;43305;52.186;5.598;2024-03-17T03:15:09;15.90;;;5.20;;
18929;SDS011;43305;52.186;5.598;2024-03-17T03:17:36;10.68;;;4.65;;
18929;SDS011;43305;52.186;5.598;2024-03-17T03:20:03;17.05;;;5.07;;
18929;SDS011;43305;52.186;5.598;2024-03-17T03:22:31;11.02;;;4.70;;
18929;SDS011;43305;52.186;5.598;2024-03-17T03:24:58;12.50;;;4.97;;
18929;SDS011;43305;52.186;5.598;2024-03-17T03:27:24;13.02;;;5.10;;
18929;SDS011;43305;52.186;5.598;2024-03-17T03:29:51;15.63;;;4.78;;
18929;SDS011;43305;52.186;5.598;2024-03-17T03:32:25;12.30;;;4.85;;
18929;SDS011;43305;52.186;5.598;2024-03-17T03:34:51;15.98;;;5.80;;
18929;SDS011;43305;52.186;5.598;2024-03-17T03:37:18;17.77;;;5.03;;
18929;SDS011;43305;52.186;5.598;2024-03-17T03:39:46;15.15;;;5.03;;
18929;SDS011;43305;52.186;5.598;2024-03-17T03:42:14;8.75;;;4.63;;
18929;SDS011;43305;52.186;5.598;2024-03-17T03:44:40;14.85;;;5.22;;
18929;SDS011;43305;52.186;5.598;2024-03-17T03:47:08;14.27;;;5.28;;
18929;SDS011;43305;52.186;5.598;2024-03-17T03:49:36;11.75;;;5.28;;
18929;SDS011;43305;52.186;5.598;2024-03-17T03:52:03;14.93;;;5.65;;
18929;SDS011;43305;52.186;5.598;2024-03-17T03:54:30;10.93;;;5.03;;
18929;SDS011;43305;52.186;5.598;2024-03-17T03:56:57;11.18;;;5.30;;
18929;SDS011;43305;52.186;5.598;2024-03-17T03:59:24;14.73;;;5.53;;
18929;SDS011;43305;52.186;5.598;2024-03-17T04:01:51;14.27;;;5.95;;
18929;SDS011;43305;52.186;5.598;2024-03-17T04:04:18;13.45;;;5.70;;
18929;SDS011;43305;52.186;5.598;2024-03-17T04:06:48;12.90;;;5.65;;
18929;SDS011;43305;52.186;5.598;2024-03-17T04:09:18;15.82;;;5.75;;
18929;SDS011;43305;52.186;5.598;2024-03-17T04:11:45;17.50;;;6.28;;
18929;SDS011;43305;52.186;5.598;2024-03-17T04:14:12;11.82;;;6.10;;
18929;SDS011;43305;52.186;5.598;2024-03-17T04:16:39;12.88;;;6.30;;
18929;SDS011;43305;52.186;5.598;2024-03-17T04:19:05;20.02;;;6.25;;
18929;SDS011;43305;52.186;5.598;2024-03-17T04:21:33;16.92;;;6.47;;
18929;SDS011;43305;52.186;5.598;2024-03-17T04:24:03;13.38;;;5.85;;
18929;SDS011;43305;52.186;5.598;2024-03-17T04:26:30;13.80;;;6.68;;
18929;SDS011;43305;52.186;5.598;2024-03-17T04:28:57;12.95;;;6.32;;
18929;SDS011;43305;52.186;5.598;2024-03-17T04:31:25;12.05;;;6.05;;
18929;SDS011;43305;52.186;5.598;2024-03-17T04:33:52;16.95;;;6.55;;
18929;SDS011;43305;52.186;5.598;2024-03-17T04:36:19;12.70;;;6.38;;
18929;SDS011;43305;52.186;5.598;2024-03-17T04:38:48;16.73;;;6.60;;
18929;SDS011;43305;52.186;5.598;2024-03-17T04:41:21;14.77;;;6.88;;
18929;SDS011;43305;52.186;5.598;2024-03-17T04:43:47;14.60;;;6.53;;
18929;SDS011;43305;52.186;5.598;2024-03-17T04:46:17;13.90;;;6.70;;
18929;SDS011;43305;52.186;5.598;2024-03-17T04:48:43;15.60;;;7.10;;
18929;SDS011;43305;52.186;5.598;2024-03-17T04:51:14;15.32;;;7.03;;
18929;SDS011;43305;52.186;5.598;2024-03-17T04:53:41;12.90;;;6.88;;
18929;SDS011;43305;52.186;5.598;2024-03-17T04:56:08;14.82;;;7.18;;
18929;SDS011;43305;52.186;5.598;2024-03-17T04:58:36;14.07;;;7.22;;
18929;SDS011;43305;52.186;5.598;2024-03-17T05:01:05;16.42;;;6.93;;
18929;SDS011;43305;52.186;5.598;2024-03-17T05:03:32;16.52;;;7.15;;
18929;SDS011;43305;52.186;5.598;2024-03-17T05:05:59;18.50;;;7.53;;
18929;SDS011;43305;52.186;5.598;2024-03-17T05:08:29;16.55;;;7.35;;
18929;SDS011;43305;52.186;5.598;2024-03-17T05:10:57;16.58;;;7.50;;
18929;SDS011;43305;52.186;5.598;2024-03-17T05:13:25;21.67;;;7.55;;
18929;SDS011;43305;52.186;5.598;2024-03-17T05:15:53;16.48;;;8.38;;
18929;SDS011;43305;52.186;5.598;2024-03-17T05:18:23;13.90;;;7.65;;
18929;SDS011;43305;52.186;5.598;2024-03-17T05:20:57;16.38;;;8.23;;
18929;SDS011;43305;52.186;5.598;2024-03-17T05:23:25;14.48;;;7.60;;
18929;SDS011;43305;52.186;5.598;2024-03-17T05:25:53;15.45;;;7.88;;
18929;SDS011;43305;52.186;5.598;2024-03-17T05:28:23;15.05;;;8.02;;
18929;SDS011;43305;52.186;5.598;2024-03-17T05:30:51;18.88;;;8.38;;
18929;SDS011;43305;52.186;5.598;2024-03-17T05:33:20;20.30;;;8.93;;
18929;SDS011;43305;52.186;5.598;2024-03-17T05:35:51;14.05;;;7.80;;
18929;SDS011;43305;52.186;5.598;2024-03-17T05:38:19;19.90;;;8.13;;
18929;SDS011;43305;52.186;5.598;2024-03-17T05:40:52;13.20;;;8.43;;
18929;SDS011;43305;52.186;5.598;2024-03-17T05:43:21;15.85;;;8.13;;
18929;SDS011;43305;52.186;5.598;2024-03-17T05:45:48;20.08;;;9.15;;
18929;SDS011;43305;52.186;5.598;2024-03-17T05:48:23;16.48;;;8.70;;
18929;SDS011;43305;52.186;5.598;2024-03-17T05:50:51;20.17;;;9.30;;
18929;SDS011;43305;52.186;5.598;2024-03-17T05:53:17;16.45;;;8.88;;
18929;SDS011;43305;52.186;5.598;2024-03-17T05:55:45;15.65;;;8.80;;
18929;SDS011;43305;52.186;5.598;2024-03-17T05:58:12;17.60;;;9.30;;
18929;SDS011;43305;52.186;5.598;2024-03-17T06:00:39;20.15;;;9.38;;
18929;SDS011;43305;52.186;5.598;2024-03-17T06:03:09;20.92;;;9.52;;
18929;SDS011;43305;52.186;5.598;2024-03-17T06:05:38;19.33;;;9.43;;
18929;SDS011;43305;52.186;5.598;2024-03-17T06:08:06;17.90;;;9.52;;
18929;SDS011;43305;52.186;5.598;2024-03-17T06:10:36;18.48;;;9.73;;
18929;SDS011;43305;52.186;5.598;2024-03-17T06:13:04;17.67;;;9.07;;
18929;SDS011;43305;52.186;5.598;2024-03-17T06:15:31;19.25;;;9.73;;
18929;SDS011;43305;52.186;5.598;2024-03-17T06:17:57;16.85;;;9.43;;
18929;SDS011;43305;52.186;5.598;2024-03-17T06:20:26;21.17;;;10.18;;
18929;SDS011;43305;52.186;5.598;2024-03-17T06:22:55;20.13;;;10.35;;
18929;SDS011;43305;52.186;5.598;2024-03-17T06:25:22;24.73;;;9.88;;
18929;SDS011;43305;52.186;5.598;2024-03-17T06:27:49;19.55;;;10.82;;
18929;SDS011;43305;52.186;5.598;2024-03-17T06:30:19;16.65;;;10.20;;
18929;SDS011;43305;52.186;5.598;2024-03-17T06:32:49;23.77;;;11.25;;
18929;SDS011;43305;52.186;5.598;2024-03-17T06:35:19;23.52;;;11.07;;
18929;SDS011;43305;52.186;5.598;2024-03-17T06:37:51;21.45;;;10.73;;
18929;SDS011;43305;52.186;5.598;2024-03-17T06:40:21;18.75;;;10.90;;
18929;SDS011;43305;52.186;5.598;2024-03-17T06:42:47;23.52;;;10.48;;
18929;SDS011;43305;52.186;5.598;2024-03-17T06:45:14;21.80;;;11.40;;
18929;SDS011;43305;52.186;5.598;2024-03-17T06:47:45;18.63;;;10.30;;
18929;SDS011;43305;52.186;5.598;2024-03-17T06:50:12;22.17;;;10.80;;
18929;SDS011;43305;52.186;5.598;2024-03-17T06:52:39;20.42;;;10.82;;
18929;SDS011;43305;52.186;5.598;2024-03-17T06:55:07;21.17;;;10.80;;
18929;SDS011;43305;52.186;5.598;2024-03-17T06:57:35;17.13;;;10.25;;
18929;SDS011;43305;52.186;5.598;2024-03-17T07:00:02;18.20;;;10.20;;
18929;SDS011;43305;52.186;5.598;2024-03-17T07:02:30;21.02;;;10.63;;
18929;SDS011;43305;52.186;5.598;2024-03-17T07:04:57;22.00;;;10.60;;
18929;SDS011;43305;52.186;5.598;2024-03-17T07:07:26;16.85;;;10.23;;
18929;SDS011;43305;52.186;5.598;2024-03-17T07:09:53;17.13;;;10.10;;
18929;SDS011;43305;52.186;5.598;2024-03-17T07:12:19;17.02;;;10.50;;
18929;SDS011;43305;52.186;5.598;2024-03-17T07:14:53;17.13;;;9.60;;
18929;SDS011;43305;52.186;5.598;2024-03-17T07:17:20;19.00;;;10.07;;
18929;SDS011;43305;52.186;5.598;2024-03-17T07:19:47;17.70;;;9.45;;
18929;SDS011;43305;52.186;5.598;2024-03-17T07:22:17;17.95;;;9.73;;
18929;SDS011;43305;52.186;5.598;2024-03-17T07:24:44;17.05;;;9.32;;
18929;SDS011;43305;52.186;5.598;2024-03-17T07:27:11;19.83;;;9.52;;
18929;SDS011;43305;52.186;5.598;2024-03-17T07:29:39;16.40;;;9.13;;
18929;SDS011;43305;52.186;5.598;2024-03-17T07:32:08;14.10;;;9.18;;
18929;SDS011;43305;52.186;5.598;2024-03-17T07:34:35;18.55;;;9.82;;
18929;SDS011;43305;52.186;5.598;2024-03-17T07:37:02;16.98;;;9.50;;
18929;SDS011;43305;52.186;5.598;2024-03-17T07:39:29;15.57;;;8.80;;
18929;SDS011;43305;52.186;5.598;2024-03-17T07:41:57;19.95;;;9.23;;
18929;SDS011;43305;52.186;5.598;2024-03-17T07:44:24;18.10;;;8.63;;
18929;SDS011;43305;52.186;5.598;2024-03-17T07:46:54;15.93;;;8.65;;
18929;SDS011;43305;52.186;5.598;2024-03-17T07:49:25;14.35;;;8.48;;
18929;SDS011;43305;52.186;5.598;2024-03-17T07:51:52;12.80;;;8.18;;
18929;SDS011;43305;52.186;5.598;2024-03-17T07:54:19;14.00;;;8.13;;
18929;SDS011;43305;52.186;5.598;2024-03-17T07:56:48;14.27;;;8.45;;
18929;SDS011;43305;52.186;5.598;2024-03-17T07:59:18;14.65;;;8.30;;
18929;SDS011;43305;52.186;5.598;2024-03-17T08:01:47;13.55;;;7.88;;
18929;SDS011;43305;52.186;5.598;2024-03-17T08:04:16;14.02;;;8.18;;
18929;SDS011;43305;52.186;5.598;2024-03-17T08:06:45;16.10;;;7.95;;
18929;SDS011;43305;52.186;5.598;2024-03-17T08:09:11;11.82;;;7.55;;
18929;SDS011;43305;52.186;5.598;2024-03-17T08:11:38;12.70;;;6.93;;
18929;SDS011;43305;52.186;5.598;2024-03-17T08:14:08;12.82;;;7.50;;
18929;SDS011;43305;52.186;5.598;2024-03-17T08:16:35;12.73;;;7.15;;
18929;SDS011;43305;52.186;5.598;2024-03-17T08:19:02;12.77;;;7.18;;
18929;SDS011;43305;52.186;5.598;2024-03-17T08:21:29;13.02;;;7.15;;
18929;SDS011;43305;52.186;5.598;2024-03-17T08:23:56;13.80;;;7.22;;
18929;SDS011;43305;52.186;5.598;2024-03-17T08:26:23;12.52;;;7.20;;
18929;SDS011;43305;52.186;5.598;2024-03-17T08:28:53;11.27;;;7.13;;
18929;SDS011;43305;52.186;5.598;2024-03-17T08:31:23;15.68;;;6.97;;
18929;SDS011;43305;52.186;5.598;2024-03-17T08:33:53;12.77;;;6.45;;
18929;SDS011;43305;52.186;5.598;2024-03-17T08:36:23;12.77;;;6.50;;
18929;SDS011;43305;52.186;5.598;2024-03-17T08:38:53;12.35;;;6.97;;
18929;SDS011;43305;52.186;5.598;2024-03-17T08:41:28;11.43;;;6.72;;
18929;SDS011;43305;52.186;5.598;2024-03-17T08:43:56;9.95;;;6.32;;
18929;SDS011;43305;52.186;5.598;2024-03-17T08:46:23;9.00;;;6.30;;
18929;SDS011;43305;52.186;5.598;2024-03-17T08:48:53;10.80;;;6.28;;
18929;SDS011;43305;52.186;5.598;2024-03-17T08:51:26;11.52;;;6.50;;
18929;SDS011;43305;52.186;5.598;2024-03-17T08:53:53;11.25;;;6.85;;
18929;SDS011;43305;52.186;5.598;2024-03-17T08:56:22;9.98;;;6.35;;
18929;SDS011;43305;52.186;5.598;2024-03-17T08:58:53;11.70;;;6.18;;
18929;SDS011;43305;52.186;5.598;2024-03-17T09:01:20;10.48;;;5.78;;
18929;SDS011;43305;52.186;5.598;2024-03-17T09:03:52;14.50;;;8.07;;
18929;SDS011;43305;52.186;5.598;2024-03-17T09:06:21;12.27;;;6.60;;
18929;SDS011;43305;52.186;5.598;2024-03-17T09:08:48;10.20;;;6.10;;
18929;SDS011;43305;52.186;5.598;2024-03-17T09:11:18;16.27;;;5.82;;
18929;SDS011;43305;52.186;5.598;2024-03-17T09:13:49;11.48;;;5.95;;
18929;SDS011;43305;52.186;5.598;2024-03-17T09:16:21;10.80;;;5.65;;
18929;SDS011;43305;52.186;5.598;2024-03-17T09:18:52;10.50;;;5.63;;
18929;SDS011;43305;52.186;5.598;2024-03-17T09:21:19;9.45;;;6.03;;
18929;SDS011;43305;52.186;5.598;2024-03-17T09:23:49;9.60;;;5.72;;
18929;SDS011;43305;52.186;5.598;2024-03-17T09:26:19;10.65;;;5.57;;
18929;SDS011;43305;52.186;5.598;2024-03-17T09:28:47;8.57;;;5.45;;
18929;SDS011;43305;52.186;5.598;2024-03-17T09:31:16;10.60;;;5.75;;
18929;SDS011;43305;52.186;5.598;2024-03-17T09:33:42;8.02;;;5.07;;
18929;SDS011;43305;52.186;5.598;2024-03-17T09:36:09;9.93;;;5.55;;
18929;SDS011;43305;52.186;5.598;2024-03-17T09:38:38;8.75;;;5.22;;
18929;SDS011;43305;52.186;5.598;2024-03-17T09:41:05;10.32;;;5.03;;
18929;SDS011;43305;52.186;5.598;2024-03-17T09:43:33;10.50;;;5.53;;
18929;SDS011;43305;52.186;5.598;2024-03-17T09:46:02;11.15;;;5.28;;
18929;SDS011;43305;52.186;5.598;2024-03-17T09:48:32;8.77;;;5.22;;
18929;SDS011;43305;52.186;5.598;2024-03-17T09:50:59;9.85;;;5.25;;
18929;SDS011;43305;52.186;5.598;2024-03-17T09:53:28;12.20;;;5.43;;
18929;SDS011;43305;52.186;5.598;2024-03-17T09:55:57;11.27;;;5.63;;
18929;SDS011;43305;52.186;5.598;2024-03-17T09:58:24;10.38;;;5.47;;
18929;SDS011;43305;52.186;5.598;2024-03-17T10:00:51;10.50;;;5.30;;
18929;SDS011;43305;52.186;5.598;2024-03-17T10:06:10;8.88;;;5.82;;
18929;SDS011;43305;52.186;5.598;2024-03-17T10:08:44;11.05;;;5.65;;
18929;SDS011;43305;52.186;5.598;2024-03-17T10:11:11;13.57;;;5.40;;
18929;SDS011;43305;52.186;5.598;2024-03-17T10:13:40;8.68;;;5.22;;
18929;SDS011;43305;52.186;5.598;2024-03-17T10:16:17;8.30;;;5.18;;
18929;SDS011;43305;52.186;5.598;2024-03-17T10:19:05;8.32;;;5.28;;
18929;SDS011;43305;52.186;5.598;2024-03-17T10:21:37;8.60;;;5.22;;
18929;SDS011;43305;52.186;5.598;2024-03-17T10:24:05;9.05;;;5.25;;
18929;SDS011;43305;52.186;5.598;2024-03-17T10:26:36;10.70;;;5.65;;
18929;SDS011;43305;52.186;5.598;2024-03-17T10:29:04;12.02;;;4.88;;
18929;SDS011;43305;52.186;5.598;2024-03-17T10:31:31;10.13;;;5.10;;
18929;SDS011;43305;52.186;5.598;2024-03-17T10:34:02;9.70;;;5.10;;
18929;SDS011;43305;52.186;5.598;2024-03-17T10:36:29;10.13;;;4.85;;
18929;SDS011;43305;52.186;5.598;2024-03-17T10:38:56;7.60;;;4.40;;
18929;SDS011;43305;52.186;5.598;2024-03-17T10:41:23;8.38;;;5.15;;
18929;SDS011;43305;52.186;5.598;2024-03-17T10:43:54;8.77;;;4.50;;
18929;SDS011;43305;52.186;5.598;2024-03-17T10:46:21;11.30;;;4.80;;
18929;SDS011;43305;52.186;5.598;2024-03-17T10:48:53;7.63;;;4.93;;
18929;SDS011;43305;52.186;5.598;2024-03-17T10:51:25;8.20;;;5.00;;
18929;SDS011;43305;52.186;5.598;2024-03-17T10:53:52;8.30;;;4.47;;
18929;SDS011;43305;52.186;5.598;2024-03-17T10:56:21;10.63;;;4.78;;
18929;SDS011;43305;52.186;5.598;2024-03-17T10:58:48;7.25;;;4.50;;
18929;SDS011;43305;52.186;5.598;2024-03-17T11:01:22;7.70;;;4.05;;
18929;SDS011;43305;52.186;5.598;2024-03-17T11:03:53;9.25;;;4.38;;
18929;SDS011;43305;52.186;5.598;2024-03-17T11:06:24;10.18;;;4.88;;
18929;SDS011;43305;52.186;5.598;2024-03-17T11:08:51;9.10;;;4.65;;
18929;SDS011;43305;52.186;5.598;2024-03-17T11:16:49;7.47;;;4.00;;
18929;SDS011;43305;52.186;5.598;2024-03-17T11:19:18;7.35;;;4.22;;
18929;SDS011;43305;52.186;5.598;2024-03-17T11:21:45;7.70;;;4.43;;
18929;SDS011;43305;52.186;5.598;2024-03-17T11:24:19;8.55;;;4.30;;
18929;SDS011;43305;52.186;5.598;2024-03-17T11:26:53;8.48;;;4.15;;
18929;SDS011;43305;52.186;5.598;2024-03-17T11:29:26;7.82;;;4.60;;
18929;SDS011;43305;52.186;5.598;2024-03-17T11:31:54;10.43;;;5.22;;
18929;SDS011;43305;52.186;5.598;2024-03-17T11:34:27;10.52;;;5.03;;
18929;SDS011;43305;52.186;5.598;2024-03-17T11:36:57;10.68;;;5.20;;
18929;SDS011;43305;52.186;5.598;2024-03-17T11:42:14;9.07;;;4.05;;
18929;SDS011;43305;52.186;5.598;2024-03-17T11:44:42;8.68;;;4.70;;
18929;SDS011;43305;52.186;5.598;2024-03-17T11:47:10;6.57;;;4.43;;
18929;SDS011;43305;52.186;5.598;2024-03-17T11:49:37;7.82;;;4.60;;
18929;SDS011;43305;52.186;5.598;2024-03-17T11:52:08;8.68;;;4.70;;
18929;SDS011;43305;52.186;5.598;2024-03-17T11:54:36;7.40;;;4.25;;
18929;SDS011;43305;52.186;5.598;2024-03-17T11:57:05;8.82;;;4.78;;
18929;SDS011;43305;52.186;5.598;2024-03-17T11:59:32;9.23;;;5.25;;
18929;SDS011;43305;52.186;5.598;2024-03-17T12:01:59;9.18;;;5.28;;
18929;SDS011;43305;52.186;5.598;2024-03-17T12:04:27;11.23;;;4.97;;
18929;SDS011;43305;52.186;5.598;2024-03-17T12:06:54;9.25;;;4.75;;
18929;SDS011;43305;52.186;5.598;2024-03-17T12:09:23;11.43;;;4.80;;
18929;SDS011;43305;52.186;5.598;2024-03-17T12:11:57;11.70;;;4.80;;
18929;SDS011;43305;52.186;5.598;2024-03-17T12:14:24;8.75;;;5.03;;
18929;SDS011;43305;52.186;5.598;2024-03-17T12:16:52;12.85;;;5.50;;
18929;SDS011;43305;52.186;5.598;2024-03-17T12:19:19;8.95;;;4.75;;
18929;SDS011;43305;52.186;5.598;2024-03-17T12:21:50;8.95;;;5.30;;
18929;SDS011;43305;52.186;5.598;2024-03-17T12:24:20;8.80;;;5.18;;
18929;SDS011;43305;52.186;5.598;2024-03-17T12:26:50;12.05;;;5.18;;
18929;SDS011;43305;52.186;5.598;2024-03-17T12:29:24;9.82;;;4.93;;
18929;SDS011;43305;52.186;5.598;2024-03-17T12:31:54;10.73;;;4.95;;
18929;SDS011;43305;52.186;5.598;2024-03-17T12:34:24;9.38;;;5.20;;
18929;SDS011;43305;52.186;5.598;2024-03-17T12:36:53;9.88;;;5.53;;
18929;SDS011;43305;52.186;5.598;2024-03-17T12:39:20;9.23;;;5.50;;
18929;SDS011;43305;52.186;5.598;2024-03-17T12:42:03;9.63;;;5.45;;
18929;SDS011;43305;52.186;5.598;2024-03-17T12:44:31;11.90;;;5.60;;
18929;SDS011;43305;52.186;5.598;2024-03-17T12:46:58;9.45;;;5.22;;
18929;SDS011;43305;52.186;5.598;2024-03-17T12:49:27;8.48;;;5.32;;
18929;SDS011;43305;52.186;5.598;2024-03-17T12:51:53;9.52;;;5.80;;
18929;SDS011;43305;52.186;5.598;2024-03-17T12:54:23;10.00;;;5.57;;
18929;SDS011;43305;52.186;5.598;2024-03-17T12:57:03;11.98;;;5.85;;
18929;SDS011;43305;52.186;5.598;2024-03-17T12:59:48;13.73;;;5.88;;
18929;SDS011;43305;52.186;5.598;2024-03-17T13:02:43;12.00;;;6.35;;
18929;SDS011;43305;52.186;5.598;2024-03-17T13:05:14;14.95;;;7.32;;
18929;SDS011;43305;52.186;5.598;2024-03-17T13:07:42;14.80;;;6.75;;
18929;SDS011;43305;52.186;5.598;2024-03-17T13:10:13;15.77;;;6.28;;
18929;SDS011;43305;52.186;5.598;2024-03-17T13:12:41;11.93;;;5.90;;
18929;SDS011;43305;52.186;5.598;2024-03-17T13:15:09;11.38;;;5.70;;
18929;SDS011;43305;52.186;5.598;2024-03-17T13:17:38;8.52;;;5.28;;
18929;SDS011;43305;52.186;5.598;2024-03-17T13:20:05;9.55;;;5.53;;
18929;SDS011;43305;52.186;5.598;2024-03-17T13:22:36;8.77;;;5.72;;
18929;SDS011;43305;52.186;5.598;2024-03-17T13:25:05;9.65;;;5.18;;
18929;SDS011;43305;52.186;5.598;2024-03-17T13:27:36;11.00;;;5.32;;
18929;SDS011;43305;52.186;5.598;2024-03-17T13:30:03;9.40;;;5.50;;
18929;SDS011;43305;52.186;5.598;2024-03-17T13:32:31;10.25;;;5.43;;
18929;SDS011;43305;52.186;5.598;2024-03-17T13:34:58;10.00;;;5.20;;
18929;SDS011;43305;52.186;5.598;2024-03-17T13:37:24;10.43;;;5.80;;
18929;SDS011;43305;52.186;5.598;2024-03-17T13:39:52;9.13;;;5.30;;
18929;SDS011;43305;52.186;5.598;2024-03-17T13:42:18;6.90;;;5.05;;
18929;SDS011;43305;52.186;5.598;2024-03-17T13:44:47;10.10;;;5.60;;
18929;SDS011;43305;52.186;5.598;2024-03-17T13:47:14;11.85;;;5.43;;
18929;SDS011;43305;52.186;5.598;2024-03-17T13:49:42;11.55;;;5.63;;
18929;SDS011;43305;52.186;5.598;2024-03-17T13:52:09;8.98;;;5.65;;
18929;SDS011;43305;52.186;5.598;2024-03-17T13:54:36;11.38;;;6.65;;
18929;SDS011;43305;52.186;5.598;2024-03-17T13:57:03;13.82;;;7.70;;
18929;SDS011;43305;52.186;5.598;2024-03-17T13:59:30;10.02;;;5.63;;
18929;SDS011;43305;52.186;5.598;2024-03-17T14:02:00;11.25;;;6.03;;
18929;SDS011;43305;52.186;5.598;2024-03-17T14:04:28;13.68;;;7.47;;
18929;SDS011;43305;52.186;5.598;2024-03-17T14:06:55;13.02;;;6.28;;
18929;SDS011;43305;52.186;5.598;2024-03-17T14:09:21;10.95;;;6.47;;
18929;SDS011;43305;52.186;5.598;2024-03-17T14:11:48;14.88;;;6.68;;
18929;SDS011;43305;52.186;5.598;2024-03-17T14:14:18;10.07;;;6.22;;
18929;SDS011;43305;52.186;5.598;2024-03-17T14:16:45;12.27;;;6.55;;
18929;SDS011;43305;52.186;5.598;2024-03-17T14:19:13;10.73;;;6.30;;
18929;SDS011;43305;52.186;5.598;2024-03-17T14:21:40;11.18;;;6.47;;
18929;SDS011;43305;52.186;5.598;2024-03-17T14:24:07;13.73;;;7.32;;
18929;SDS011;43305;52.186;5.598;2024-03-17T14:26:35;11.43;;;6.60;;
18929;SDS011;43305;52.186;5.598;2024-03-17T14:29:02;11.48;;;6.70;;
18929;SDS011;43305;52.186;5.598;2024-03-17T14:31:32;11.18;;;6.38;;
18929;SDS011;43305;52.186;5.598;2024-03-17T14:34:01;13.32;;;7.25;;
18929;SDS011;43305;52.186;5.598;2024-03-17T14:36:31;11.98;;;6.97;;
18929;SDS011;43305;52.186;5.598;2024-03-17T14:38:58;11.57;;;7.10;;
18929;SDS011;43305;52.186;5.598;2024-03-17T14:41:27;18.00;;;8.55;;
18929;SDS011;43305;52.186;5.598;2024-03-17T14:43:54;14.68;;;9.35;;
18929;SDS011;43305;52.186;5.598;2024-03-17T14:46:22;15.63;;;8.07;;
18929;SDS011;43305;52.186;5.598;2024-03-17T14:48:52;12.38;;;6.57;;
18929;SDS011;43305;52.186;5.598;2024-03-17T14:51:18;38.45;;;13.60;;
18929;SDS011;43305;52.186;5.598;2024-03-17T14:53:54;24.23;;;11.70;;